createdAt,value
2023-04-12T00:03:39.424Z,16.20
2023-04-12T00:13:44.321Z,14.60
2023-04-12T00:18:45.841Z,13.30
2023-04-12T00:23:47.617Z,12.50
2023-04-12T00:28:49.112Z,14.30
2023-04-12T00:33:50.626Z,15.90
2023-04-12T00:38:52.164Z,12.30
2023-04-12T00:43:53.906Z,10.60
2023-04-12T00:48:57.084Z,13.70
2023-04-12T00:54:00.049Z,14.70
2023-04-12T00:59:02.189Z,12.00
2023-04-12T01:04:04.752Z,14.10
2023-04-12T01:09:34.433Z,9.20
2023-04-12T01:14:44.441Z,8.80
2023-04-12T01:20:13.847Z,11.20
2023-04-12T01:25:32.614Z,9.00
2023-04-12T01:30:34.870Z,10.50
2023-04-12T01:35:37.966Z,10.30
2023-04-12T01:40:42.511Z,10.10
2023-04-12T01:45:44.236Z,9.70
2023-04-12T01:51:10.706Z,9.30
2023-04-12T01:56:13.096Z,10.50
2023-04-12T02:01:16.140Z,8.20
2023-04-12T02:06:22.931Z,8.30
2023-04-12T02:11:24.648Z,7.10
2023-04-12T02:16:29.489Z,8.80
2023-04-12T02:21:42.867Z,6.70
2023-04-12T02:26:44.352Z,8.70
2023-04-12T02:31:46.483Z,7.60
2023-04-12T02:36:49.303Z,8.00
2023-04-12T02:41:51.057Z,7.70
2023-04-12T02:46:52.591Z,6.50
2023-04-12T02:51:54.065Z,8.20
2023-04-12T02:56:55.831Z,6.40
2023-04-12T03:01:57.466Z,8.10
2023-04-12T03:06:59.273Z,5.80
2023-04-12T03:12:02.130Z,6.50
2023-04-12T03:17:03.616Z,8.90
2023-04-12T03:22:06.194Z,9.90
2023-04-12T03:27:08.360Z,7.60
2023-04-12T03:32:09.882Z,8.40
2023-04-12T03:37:11.512Z,9.10
2023-04-12T03:42:25.487Z,9.90
2023-04-12T03:47:33.780Z,11.90
2023-04-12T03:52:35.845Z,10.30
2023-04-12T03:57:37.436Z,10.50
2023-04-12T04:02:39.190Z,11.10
2023-04-12T04:07:40.796Z,10.90
2023-04-12T04:12:42.327Z,11.80
2023-04-12T04:17:44.821Z,12.90
2023-04-12T04:22:49.984Z,13.00
2023-04-12T04:27:52.091Z,13.70
2023-04-12T04:32:53.726Z,11.30
2023-04-12T04:37:55.728Z,13.40
2023-04-12T04:42:57.887Z,13.10
2023-04-12T04:47:59.472Z,13.40
2023-04-12T04:53:01.080Z,12.50
2023-04-12T04:58:02.573Z,11.20
2023-04-12T05:03:04.340Z,14.10
2023-04-12T05:08:06.216Z,12.30
2023-04-12T05:13:07.701Z,13.30
2023-04-12T05:18:09.219Z,15.20
2023-04-12T05:23:10.952Z,15.80
2023-04-12T05:28:14.387Z,13.70
2023-04-12T05:33:16.025Z,10.00
2023-04-12T05:38:17.607Z,14.10
2023-04-12T05:43:19.167Z,12.40
2023-04-12T05:48:21.647Z,13.40
2023-04-12T05:53:23.152Z,13.20
2023-04-12T05:58:24.788Z,16.80
2023-04-12T06:03:26.784Z,14.80
2023-04-12T06:08:29.496Z,15.10
2023-04-12T06:13:31.221Z,13.40
2023-04-12T06:18:33.216Z,16.70
2023-04-12T06:23:34.741Z,21.00
2023-04-12T06:28:36.443Z,18.00
2023-04-12T06:33:38.017Z,14.80
2023-04-12T06:38:39.618Z,13.50
2023-04-12T06:43:41.156Z,14.30
2023-04-12T06:48:42.648Z,14.90
2023-04-12T06:53:44.323Z,15.00
2023-04-12T06:58:46.058Z,17.10
2023-04-12T07:03:47.678Z,15.90
2023-04-12T07:08:49.695Z,14.70
2023-04-12T07:13:51.626Z,16.80
2023-04-12T07:18:53.353Z,16.90
2023-04-12T07:23:55.873Z,11.30
2023-04-12T07:28:57.800Z,15.90
2023-04-12T07:33:59.693Z,17.50
2023-04-12T07:39:01.353Z,16.60
2023-04-12T07:44:02.841Z,16.40
2023-04-12T07:49:04.493Z,15.80
2023-04-12T07:54:06.364Z,17.10
2023-04-12T07:59:08.039Z,14.50
2023-04-12T08:04:09.598Z,16.60
2023-04-12T08:09:11.254Z,19.70
2023-04-12T08:14:13.331Z,18.10
2023-04-12T08:19:14.850Z,21.50
2023-04-12T08:24:16.327Z,19.90
2023-04-12T08:29:18.375Z,16.60
2023-04-12T08:34:22.356Z,14.40
2023-04-12T08:39:23.948Z,15.00
2023-04-12T08:44:36.610Z,20.50
2023-04-12T08:49:38.200Z,35.70
2023-04-12T08:54:39.686Z,13.80
2023-04-12T08:59:43.696Z,14.80
2023-04-12T09:04:50.437Z,16.90
2023-04-12T09:09:52.130Z,19.10
2023-04-12T09:15:08.590Z,12.90
2023-04-12T09:20:16.149Z,13.50
2023-04-12T09:25:17.678Z,13.60
2023-04-12T09:30:20.833Z,14.00
2023-04-12T09:40:38.240Z,14.40
2023-04-12T09:45:39.975Z,16.80
2023-04-12T09:50:41.622Z,15.80
2023-04-12T09:55:44.134Z,13.40
2023-04-12T10:00:47.102Z,12.30
2023-04-12T10:05:49.043Z,22.00
2023-04-12T10:10:52.208Z,13.00
2023-04-12T10:20:56.043Z,13.40
2023-04-12T10:25:58.862Z,12.50
2023-04-12T10:31:00.716Z,14.40
2023-04-12T10:36:06.954Z,13.80
2023-04-12T10:41:11.878Z,13.00
2023-04-12T10:46:46.181Z,14.60
2023-04-12T10:52:09.525Z,11.60
2023-04-12T10:57:47.865Z,14.10
2023-04-12T11:08:14.425Z,11.80
2023-04-12T11:13:17.011Z,12.90
2023-04-12T11:18:18.927Z,12.10
2023-04-12T11:23:22.109Z,12.50
2023-04-12T11:28:29.771Z,12.50
2023-04-12T11:33:36.867Z,11.80
2023-04-12T11:38:39.415Z,10.80
2023-04-12T11:43:41.029Z,13.00
2023-04-12T11:48:45.928Z,10.80
2023-04-12T11:53:52.663Z,10.90
2023-04-12T11:58:54.268Z,11.40
2023-04-12T12:03:56.512Z,10.00
2023-04-12T12:08:59.244Z,10.40
2023-04-12T12:14:01.191Z,11.30
2023-04-12T12:19:05.678Z,11.40
2023-04-12T12:24:07.366Z,10.70
2023-04-12T12:29:17.811Z,9.30
2023-04-12T12:34:19.760Z,9.50
2023-04-12T12:39:21.362Z,11.80
2023-04-12T12:44:24.066Z,10.40
2023-04-12T12:49:25.815Z,9.90
2023-04-12T12:54:40.591Z,11.00
2023-04-12T12:59:42.982Z,10.60
2023-04-12T13:04:44.634Z,10.10
2023-04-12T13:09:46.529Z,10.70
2023-04-12T13:14:48.596Z,9.70
2023-04-12T13:19:50.190Z,10.10
2023-04-12T13:24:51.693Z,9.30
2023-04-12T13:29:53.220Z,12.80
2023-04-12T13:34:54.745Z,10.60
2023-04-12T13:39:56.638Z,10.10
2023-04-12T13:44:58.236Z,15.20
2023-04-12T13:50:02.952Z,10.00
2023-04-12T13:55:08.261Z,9.80
2023-04-12T14:00:11.385Z,10.40
2023-04-12T14:05:12.901Z,9.10
2023-04-12T14:10:14.462Z,10.40
2023-04-12T14:15:16.441Z,9.60
2023-04-12T14:20:19.494Z,11.50
2023-04-12T14:25:21.457Z,11.90
2023-04-12T14:30:23.001Z,10.20
2023-04-12T14:35:24.884Z,11.50
2023-04-12T14:40:26.642Z,20.10
2023-04-12T14:45:28.249Z,10.80
2023-04-12T14:50:29.886Z,10.80
2023-04-12T14:55:32.769Z,10.50
2023-04-12T15:05:36.489Z,13.10
2023-04-12T15:10:38.072Z,11.70
2023-04-12T15:15:39.690Z,11.10
2023-04-12T15:20:41.208Z,10.70
2023-04-12T15:25:42.846Z,12.50
2023-04-12T15:30:44.982Z,13.50
2023-04-12T15:35:48.335Z,11.10
2023-04-12T15:40:59.116Z,16.40
2023-04-12T15:46:01.615Z,13.50
2023-04-12T15:51:03.666Z,19.30
2023-04-12T15:56:05.846Z,14.60
2023-04-12T16:01:07.547Z,24.50
2023-04-12T16:06:09.289Z,21.10
2023-04-12T16:11:12.328Z,17.70
2023-04-12T16:16:17.326Z,14.40
2023-04-12T16:21:21.403Z,13.60
2023-04-12T16:26:23.526Z,23.00
2023-04-12T16:31:26.671Z,32.70
2023-04-12T16:36:31.604Z,16.60
2023-04-12T16:41:33.445Z,15.70
2023-04-12T16:46:35.022Z,15.40
2023-04-12T16:51:37.664Z,20.30
2023-04-12T16:56:39.475Z,24.10
2023-04-12T17:01:41.103Z,39.10
2023-04-12T17:06:44.249Z,15.50
2023-04-12T17:11:46.264Z,18.60
2023-04-12T17:16:47.850Z,16.00
2023-04-12T17:21:49.825Z,17.20
2023-04-12T17:26:51.602Z,35.00
2023-04-12T17:31:55.013Z,16.10
2023-04-12T17:36:56.962Z,16.80
2023-04-12T17:41:58.473Z,17.00
2023-04-12T17:47:00.000Z,16.40
2023-04-12T17:52:01.545Z,17.90
2023-04-12T17:57:04.139Z,21.80
2023-04-12T18:02:06.101Z,18.90
2023-04-12T18:07:10.327Z,33.10
2023-04-12T18:12:13.103Z,23.80
2023-04-12T18:17:14.627Z,21.20
2023-04-12T18:22:16.296Z,21.20
2023-04-12T18:27:17.800Z,23.90
2023-04-12T18:32:19.821Z,19.30
2023-04-12T18:37:21.639Z,19.80
2023-04-12T18:42:23.266Z,20.00
2023-04-12T18:47:26.631Z,17.50
2023-04-12T18:52:28.143Z,15.60
2023-04-12T18:57:30.292Z,16.80
2023-04-12T19:02:32.819Z,19.70
2023-04-12T19:07:34.484Z,17.30
2023-04-12T19:12:36.041Z,14.80
2023-04-12T19:17:39.404Z,14.40
2023-04-12T19:27:42.441Z,12.80
2023-04-12T19:32:44.049Z,13.30
2023-04-12T19:37:47.057Z,15.20
2023-04-12T19:42:48.562Z,15.90
2023-04-12T19:47:50.925Z,39.80
2023-04-12T19:52:52.743Z,14.30
2023-04-12T19:57:55.772Z,14.10
2023-04-12T20:02:57.310Z,15.40
2023-04-12T20:07:59.088Z,18.20
2023-04-12T20:13:00.789Z,16.60
2023-04-12T20:18:02.417Z,17.50
2023-04-12T20:23:04.637Z,16.60
2023-04-12T20:28:09.026Z,12.60
2023-04-12T20:33:10.673Z,12.30
2023-04-12T20:38:13.222Z,11.90
2023-04-12T20:43:15.622Z,15.30
2023-04-12T20:48:18.353Z,15.70
2023-04-12T20:53:19.818Z,14.50
2023-04-12T20:58:21.865Z,12.50
2023-04-12T21:03:23.590Z,16.80
2023-04-12T21:08:25.207Z,17.20
2023-04-12T21:13:26.700Z,18.50
2023-04-12T21:18:28.312Z,18.30
2023-04-12T21:23:30.243Z,18.30
2023-04-12T21:28:31.884Z,17.80
2023-04-12T21:33:34.732Z,18.50
2023-04-12T21:38:36.581Z,20.50
2023-04-12T21:43:41.561Z,19.70
2023-04-12T21:48:43.517Z,20.10
2023-04-12T21:53:45.150Z,19.10
2023-04-12T21:58:46.637Z,20.40
2023-04-12T22:03:48.356Z,27.40
2023-04-12T22:08:49.981Z,26.00
2023-04-12T22:13:51.496Z,29.60
2023-04-12T22:18:53.036Z,31.00
2023-04-12T22:23:55.245Z,27.70
2023-04-12T22:28:56.747Z,29.10
2023-04-12T22:33:58.338Z,30.00
2023-04-12T22:38:59.984Z,28.30
2023-04-12T22:44:01.726Z,30.20
2023-04-12T22:49:03.310Z,29.00
2023-04-12T22:54:06.362Z,54.00
2023-04-12T22:59:14.915Z,31.80
2023-04-12T23:04:16.929Z,23.20
2023-04-12T23:09:19.783Z,23.00
2023-04-12T23:14:21.269Z,21.70
2023-04-12T23:19:23.324Z,21.70
2023-04-12T23:24:25.058Z,24.00
2023-04-12T23:29:26.788Z,21.80
2023-04-12T23:34:30.758Z,17.90
2023-04-12T23:44:33.703Z,21.70
2023-04-12T23:49:35.453Z,22.60
2023-04-12T23:54:36.988Z,24.50
2023-04-12T23:59:39.045Z,26.10
